Time,TemperatureF,DewpointF,PressureIn,WindDirection,WindDirectionDegrees,WindSpeedMPH,WindSpeedGustMPH,Humidity,HourlyPrecipIn,Conditions,Clouds,dailyrainin,SolarRadiationWatts/m^2,SoftwareType,DateUTC
2013-04-26 00:02:00,58.0,41.0,-100.00,North,8,4.0,10.0,54,0.00,,,0.00,0.000000,,2013-04-26 05:02:00,
2013-04-26 00:12:00,58.0,41.0,-100.00,North,8,4.0,10.0,54,0.00,,,0.00,0.000000,,2013-04-26 05:12:00,
2013-04-26 00:42:00,57.0,40.0,-100.00,North,2,3.0,9.0,52,0.00,,,0.00,0.000000,,2013-04-26 05:42:00,
2013-04-26 00:52:00,57.0,40.0,-100.00,North,2,3.0,9.0,52,0.00,,,0.00,0.000000,,2013-04-26 05:52:00,
2013-04-26 01:02:00,57.0,40.0,-100.00,North,2,3.0,9.0,52,0.00,,,0.00,0.000000,,2013-04-26 06:02:00,
2013-04-26 01:11:00,57.0,40.0,-100.00,North,2,3.0,9.0,52,0.00,,,0.00,0.000000,,2013-04-26 06:11:00,
2013-04-26 01:42:00,54.0,40.0,-100.00,NNE,14,3.0,6.0,58,0.00,,,0.00,0.000000,,2013-04-26 06:42:00,
2013-04-26 01:52:00,54.0,40.0,-100.00,NNE,14,3.0,6.0,58,0.00,,,0.00,0.000000,,2013-04-26 06:52:00,
2013-04-26 02:01:00,54.0,40.0,-100.00,NNE,14,3.0,6.0,58,0.00,,,0.00,0.000000,,2013-04-26 07:01:00,
2013-04-26 02:11:00,54.0,40.0,-100.00,NNE,14,3.0,6.0,58,0.00,,,0.00,0.000000,,2013-04-26 07:11:00,
2013-04-26 02:42:00,53.0,40.0,-100.00,North,10,2.0,6.0,62,0.00,,,0.00,0.000000,,2013-04-26 07:42:00,
2013-04-26 02:52:00,53.0,40.0,-100.00,North,10,2.0,6.0,62,0.00,,,0.00,0.000000,,2013-04-26 07:52:00,
2013-04-26 03:02:00,53.0,40.0,-100.00,North,10,2.0,6.0,62,0.00,,,0.00,0.000000,,2013-04-26 08:02:00,
2013-04-26 03:11:00,53.0,40.0,-100.00,North,10,2.0,6.0,62,0.00,,,0.00,0.000000,,2013-04-26 08:11:00,
2013-04-26 03:42:00,51.0,40.0,-100.00,NNE,16,2.0,7.0,65,0.00,,,0.00,0.000000,,2013-04-26 08:42:00,
2013-04-26 03:52:00,51.0,40.0,-100.00,NNE,16,2.0,7.0,65,0.00,,,0.00,0.000000,,2013-04-26 08:52:00,
2013-04-26 04:01:00,51.0,40.0,-100.00,NNE,16,2.0,7.0,65,0.00,,,0.00,0.000000,,2013-04-26 09:01:00,
2013-04-26 04:11:00,51.0,40.0,-100.00,NNE,16,2.0,7.0,65,0.00,,,0.00,0.000000,,2013-04-26 09:11:00,
2013-04-26 04:43:00,49.0,39.0,-100.00,NNE,26,1.0,6.0,68,0.00,,,0.00,0.000000,,2013-04-26 09:43:00,
2013-04-26 04:53:00,49.0,39.0,-100.00,NNE,26,1.0,6.0,68,0.00,,,0.00,0.000000,,2013-04-26 09:53:00,
2013-04-26 05:03:00,49.0,39.0,-100.00,NNE,26,1.0,6.0,68,0.00,,,0.00,0.000000,,2013-04-26 10:03:00,
2013-04-26 05:12:00,49.0,39.0,-100.00,NNE,26,1.0,6.0,68,0.00,,,0.00,0.000000,,2013-04-26 10:12:00,
2013-04-26 05:42:00,48.0,39.0,-100.00,North,10,2.0,5.0,72,0.00,,,0.00,0.000000,,2013-04-26 10:42:00,
2013-04-26 05:52:00,48.0,39.0,-100.00,North,10,2.0,5.0,72,0.00,,,0.00,0.000000,,2013-04-26 10:52:00,
2013-04-26 06:02:00,48.0,39.0,-100.00,North,10,2.0,5.0,72,0.00,,,0.00,0.000000,,2013-04-26 11:02:00,
2013-04-26 06:11:00,48.0,39.0,-100.00,North,10,2.0,5.0,72,0.00,,,0.00,0.000000,,2013-04-26 11:11:00,
2013-04-26 06:42:00,48.0,40.0,-100.00,North,357,2.0,5.0,73,0.00,,,0.00,1.000000,,2013-04-26 11:42:00,
2013-04-26 06:52:00,48.0,40.0,-100.00,North,357,2.0,5.0,73,0.00,,,0.00,1.000000,,2013-04-26 11:52:00,
2013-04-26 07:01:00,48.0,40.0,-100.00,North,357,2.0,5.0,73,0.00,,,0.00,1.000000,,2013-04-26 12:01:00,
2013-04-26 07:11:00,48.0,40.0,-100.00,North,357,2.0,5.0,73,0.00,,,0.00,1.000000,,2013-04-26 12:11:00,
2013-04-26 07:42:00,51.0,42.0,-100.00,NNE,27,2.0,5.0,72,0.00,,,0.00,44.000000,,2013-04-26 12:42:00,
2013-04-26 07:52:00,51.0,42.0,-100.00,NNE,27,2.0,5.0,72,0.00,,,0.00,44.000000,,2013-04-26 12:52:00,
2013-04-26 08:01:00,51.0,42.0,-100.00,NNE,27,2.0,5.0,72,0.00,,,0.00,44.000000,,2013-04-26 13:01:00,
2013-04-26 08:11:00,51.0,42.0,-100.00,NNE,27,2.0,5.0,72,0.00,,,0.00,44.000000,,2013-04-26 13:11:00,
2013-04-26 08:42:00,61.0,41.0,-100.00,ENE,63,4.0,11.0,48,0.00,,,0.00,309.000000,,2013-04-26 13:42:00,
2013-04-26 08:52:00,61.0,41.0,-100.00,ENE,63,4.0,11.0,48,0.00,,,0.00,309.000000,,2013-04-26 13:52:00,
2013-04-26 09:01:00,61.0,41.0,-100.00,ENE,63,4.0,11.0,48,0.00,,,0.00,309.000000,,2013-04-26 14:01:00,
2013-04-26 09:11:00,61.0,41.0,-100.00,ENE,63,4.0,11.0,48,0.00,,,0.00,309.000000,,2013-04-26 14:11:00,
2013-04-26 09:42:00,66.0,42.0,-100.00,East,96,6.0,12.0,41,0.00,,,0.00,535.000000,,2013-04-26 14:42:00,
2013-04-26 09:52:00,66.0,42.0,-100.00,East,96,6.0,12.0,41,0.00,,,0.00,535.000000,,2013-04-26 14:52:00,
2013-04-26 10:01:00,66.0,42.0,-100.00,East,96,6.0,12.0,41,0.00,,,0.00,535.000000,,2013-04-26 15:01:00,
2013-04-26 10:12:00,66.0,42.0,-100.00,East,96,6.0,12.0,41,0.00,,,0.00,535.000000,,2013-04-26 15:12:00,
2013-04-26 10:43:00,73.0,41.0,-100.00,East,95,4.0,12.0,31,0.00,,,0.00,734.000000,,2013-04-26 15:43:00,
2013-04-26 10:53:00,73.0,41.0,-100.00,East,95,4.0,12.0,31,0.00,,,0.00,734.000000,,2013-04-26 15:53:00,
2013-04-26 11:03:00,73.0,41.0,-100.00,East,95,4.0,12.0,31,0.00,,,0.00,734.000000,,2013-04-26 16:03:00,
2013-04-26 11:12:00,73.0,41.0,-100.00,East,95,4.0,12.0,31,0.00,,,0.00,734.000000,,2013-04-26 16:12:00,
2013-04-26 11:42:00,76.0,40.0,-100.00,SE,126,4.0,10.0,27,0.00,,,0.00,884.000000,,2013-04-26 16:42:00,
2013-04-26 11:53:00,76.0,40.0,-100.00,SE,126,4.0,10.0,27,0.00,,,0.00,884.000000,,2013-04-26 16:53:00,
2013-04-26 12:02:00,76.0,40.0,-100.00,SE,126,4.0,10.0,27,0.00,,,0.00,884.000000,,2013-04-26 17:02:00,
2013-04-26 12:12:00,76.0,40.0,-100.00,SE,126,4.0,10.0,27,0.00,,,0.00,884.000000,,2013-04-26 17:12:00,
2013-04-26 12:42:00,80.0,40.0,-100.00,SSE,149,4.0,8.0,24,0.00,,,0.00,960.000000,,2013-04-26 17:42:00,
2013-04-26 12:52:00,80.0,40.0,-100.00,SSE,149,4.0,8.0,24,0.00,,,0.00,960.000000,,2013-04-26 17:52:00,
2013-04-26 13:02:00,80.0,40.0,-100.00,SSE,149,4.0,8.0,24,0.00,,,0.00,960.000000,,2013-04-26 18:02:00,
2013-04-26 13:12:00,80.0,40.0,-100.00,SSE,149,4.0,8.0,24,0.00,,,0.00,960.000000,,2013-04-26 18:12:00,
2013-04-26 13:42:00,81.0,39.0,-100.00,NE,39,3.0,8.0,22,0.00,,,0.00,1002.000000,,2013-04-26 18:42:00,
2013-04-26 13:52:00,81.0,39.0,-100.00,NE,39,3.0,8.0,22,0.00,,,0.00,1002.000000,,2013-04-26 18:52:00,
2013-04-26 14:01:00,81.0,39.0,-100.00,NE,39,3.0,8.0,22,0.00,,,0.00,1002.000000,,2013-04-26 19:01:00,
2013-04-26 14:12:00,81.0,39.0,-100.00,NE,39,3.0,8.0,22,0.00,,,0.00,1002.000000,,2013-04-26 19:12:00,
2013-04-26 14:42:00,84.0,36.0,-100.00,ESE,113,4.0,10.0,18,0.00,,,0.00,961.000000,,2013-04-26 19:42:00,
2013-04-26 14:52:00,84.0,36.0,-100.00,ESE,113,4.0,10.0,18,0.00,,,0.00,961.000000,,2013-04-26 19:52:00,
2013-04-26 15:02:00,84.0,36.0,-100.00,ESE,113,4.0,10.0,18,0.00,,,0.00,961.000000,,2013-04-26 20:02:00,
2013-04-26 15:11:00,84.0,36.0,-100.00,ESE,113,4.0,10.0,18,0.00,,,0.00,961.000000,,2013-04-26 20:11:00,
2013-04-26 15:42:00,85.0,37.0,-100.00,East,79,3.0,10.0,18,0.00,,,0.00,872.000000,,2013-04-26 20:42:00,
2013-04-26 15:52:00,85.0,37.0,-100.00,East,79,3.0,10.0,18,0.00,,,0.00,872.000000,,2013-04-26 20:52:00,
2013-04-26 16:02:00,85.0,37.0,-100.00,East,79,3.0,10.0,18,0.00,,,0.00,872.000000,,2013-04-26 21:02:00,
2013-04-26 16:11:00,85.0,37.0,-100.00,East,79,3.0,10.0,18,0.00,,,0.00,872.000000,,2013-04-26 21:11:00,
2013-04-26 16:42:00,85.0,37.0,-100.00,South,191,3.0,8.0,18,0.00,,,0.00,698.000000,,2013-04-26 21:42:00,
2013-04-26 16:53:00,85.0,37.0,-100.00,South,191,3.0,8.0,18,0.00,,,0.00,698.000000,,2013-04-26 21:53:00,
2013-04-26 17:02:00,85.0,37.0,-100.00,South,191,3.0,8.0,18,0.00,,,0.00,698.000000,,2013-04-26 22:02:00,
2013-04-26 17:12:00,85.0,37.0,-100.00,South,191,3.0,8.0,18,0.00,,,0.00,698.000000,,2013-04-26 22:12:00,
2013-04-26 17:42:00,85.0,37.0,-100.00,South,179,3.0,7.0,18,0.00,,,0.00,498.000000,,2013-04-26 22:42:00,
2013-04-26 17:52:00,85.0,37.0,-100.00,South,179,3.0,7.0,18,0.00,,,0.00,498.000000,,2013-04-26 22:52:00,
2013-04-26 18:02:00,85.0,37.0,-100.00,South,179,3.0,7.0,18,0.00,,,0.00,498.000000,,2013-04-26 23:02:00,
2013-04-26 18:11:00,85.0,37.0,-100.00,South,179,3.0,7.0,18,0.00,,,0.00,498.000000,,2013-04-26 23:11:00,
2013-04-26 18:42:00,79.0,40.0,-100.00,ESE,123,2.0,6.0,25,0.00,,,0.00,216.000000,,2013-04-26 23:42:00,
2013-04-26 18:52:00,79.0,40.0,-100.00,ESE,123,2.0,6.0,25,0.00,,,0.00,216.000000,,2013-04-26 23:52:00,
2013-04-26 19:01:00,79.0,40.0,-100.00,ESE,123,2.0,6.0,25,0.00,,,0.00,216.000000,,2013-04-27 00:01:00,
2013-04-26 19:11:00,79.0,40.0,-100.00,ESE,123,2.0,6.0,25,0.00,,,0.00,216.000000,,2013-04-27 00:11:00,
2013-04-26 19:42:00,72.0,43.0,-100.00,ENE,62,1.0,3.0,35,0.00,,,0.00,24.000000,,2013-04-27 00:42:00,
2013-04-26 19:52:00,72.0,43.0,-100.00,ENE,62,1.0,3.0,35,0.00,,,0.00,24.000000,,2013-04-27 00:52:00,
2013-04-26 20:01:00,72.0,43.0,-100.00,ENE,62,1.0,3.0,35,0.00,,,0.00,24.000000,,2013-04-27 01:01:00,
2013-04-26 20:12:00,72.0,43.0,-100.00,ENE,62,1.0,3.0,35,0.00,,,0.00,24.000000,,2013-04-27 01:12:00,
2013-04-26 20:42:00,68.0,43.0,-100.00,East,100,3.0,5.0,41,0.00,,,0.00,1.000000,,2013-04-27 01:42:00,
2013-04-26 20:52:00,68.0,43.0,-100.00,East,100,3.0,5.0,41,0.00,,,0.00,1.000000,,2013-04-27 01:52:00,
2013-04-26 21:01:00,68.0,43.0,-100.00,East,100,3.0,5.0,41,0.00,,,0.00,1.000000,,2013-04-27 02:01:00,
2013-04-26 21:11:00,68.0,43.0,-100.00,East,100,3.0,5.0,41,0.00,,,0.00,1.000000,,2013-04-27 02:11:00,
2013-04-26 21:42:00,65.0,44.0,-100.00,SSW,206,1.0,4.0,46,0.00,,,0.00,0.000000,,2013-04-27 02:42:00,
2013-04-26 21:52:00,65.0,44.0,-100.00,SSW,206,1.0,4.0,46,0.00,,,0.00,0.000000,,2013-04-27 02:52:00,
2013-04-26 22:02:00,65.0,44.0,-100.00,SSW,206,1.0,4.0,46,0.00,,,0.00,0.000000,,2013-04-27 03:02:00,
2013-04-26 22:11:00,65.0,44.0,-100.00,SSW,206,1.0,4.0,46,0.00,,,0.00,0.000000,,2013-04-27 03:11:00,
2013-04-26 22:43:00,63.0,47.0,-100.00,SSW,212,1.0,5.0,56,0.00,,,0.00,0.000000,,2013-04-27 03:43:00,
2013-04-26 22:53:00,63.0,47.0,-100.00,SSW,212,1.0,5.0,56,0.00,,,0.00,0.000000,,2013-04-27 03:53:00,
2013-04-26 23:03:00,63.0,47.0,-100.00,SSW,212,1.0,5.0,56,0.00,,,0.00,0.000000,,2013-04-27 04:03:00,
2013-04-26 23:12:00,63.0,47.0,-100.00,SSW,212,1.0,5.0,56,0.00,,,0.00,0.000000,,2013-04-27 04:12:00,
2013-04-26 23:43:00,62.0,52.0,-100.00,WNW,291,2.0,5.0,70,0.00,,,0.00,0.000000,,2013-04-27 04:43:00,
2013-04-26 23:53:00,62.0,52.0,-100.00,WNW,291,2.0,5.0,70,0.00,,,0.00,0.000000,,2013-04-27 04:53:00,